Terminal Aerodrome Forecast
Issued by NWS

Home | Current Version | Previous Version | Text Only | Print | Product List | Glossary On
Versions: 1 2 3 4 5 6 7 8 9 10 11 12 13
000
FTUS45 KREV 230524
TAFCXP
TAF
KCXP 230524Z 2306/2406 24009KT P6SM FEW120 SCT200
     FM230800 VRB04KT P6SM FEW120 SCT200
     FM231900 26014G24KT P6SM FEW120 SCT200
     FM240400 28011KT P6SM SCT120 BKN200=

USA.gov is the U.S. government's official web portal to all federal, state and local government web resources and services.